Time;durP1;ratioP1;P1;durP2;ratioP2;P2;SDS_P1;SDS_P2;PMS_P1;PMS_P2;Temp;Humidity;BMP_temperature;BMP_pressure;BME280_temperature;BME280_humidity;BME280_pressure;Samples;Min_cycle;Max_cycle;Signal;HPM_P1;HPM_P2
2024/04/07 00:00:48;;;;;;;12.27;6.07;;;9.40;1.00;;;;;;5063515;28;20291;-65
2024/04/07 00:03:34;;;;;;;12.27;6.20;;;9.40;99.90;;;;;;5066838;28;20287;-66
2024/04/07 00:06:22;;;;;;;10.60;5.80;;;9.40;99.90;;;;;;5066662;28;20206;-65
2024/04/07 00:09:09;;;;;;;16.00;6.83;;;9.40;99.90;;;;;;5062537;28;20577;-66
2024/04/07 00:11:55;;;;;;;17.80;7.40;;;9.40;99.90;;;;;;5064470;28;20221;-65
2024/04/07 00:14:44;;;;;;;12.33;6.67;;;9.40;29.40;;;;;;5069309;28;20204;-65
2024/04/07 00:17:32;;;;;;;16.23;7.90;;;9.40;1.00;;;;;;5068012;28;20283;-65
2024/04/07 00:20:19;;;;;;;13.53;6.47;;;9.40;99.90;;;;;;5063805;28;20200;-65
2024/04/07 00:23:05;;;;;;;13.03;6.73;;;9.50;11.50;;;;;;5067309;28;20322;-66
2024/04/07 00:25:53;;;;;;;16.47;7.80;;;9.50;1.00;;;;;;5066274;28;20222;-66
2024/04/07 00:28:39;;;;;;;11.43;7.30;;;9.50;1.00;;;;;;5067918;28;20204;-66
2024/04/07 00:31:26;;;;;;;16.50;7.10;;;9.50;1.00;;;;;;5064011;28;20212;-66
2024/04/07 00:34:15;;;;;;;14.87;8.10;;;9.50;1.00;;;;;;5069880;28;20212;-65
2024/04/07 00:37:01;;;;;;;15.20;8.17;;;9.40;1.00;;;;;;5069723;28;20204;-65
2024/04/07 00:39:48;;;;;;;15.07;8.03;;;9.50;28.50;;;;;;5067413;28;20319;-65
2024/04/07 00:42:34;;;;;;;16.33;8.30;;;9.40;1.00;;;;;;5060605;28;20211;-66
2024/04/07 00:45:21;;;;;;;17.20;8.30;;;9.40;1.00;;;;;;5069439;28;20286;-66
2024/04/07 00:48:08;;;;;;;19.07;8.20;;;9.40;83.60;;;;;;5063632;28;20659;-66
2024/04/07 00:50:56;;;;;;;17.67;7.97;;;9.50;99.90;;;;;;5060752;28;20200;-65
2024/04/07 00:53:42;;;;;;;13.80;7.67;;;9.40;59.30;;;;;;5067821;28;20212;-65
2024/04/07 00:56:30;;;;;;;16.13;8.47;;;9.40;99.90;;;;;;5064839;28;20293;-65
2024/04/07 00:59:16;;;;;;;16.17;8.53;;;9.30;99.90;;;;;;5062661;28;20205;-65
2024/04/07 01:02:04;;;;;;;22.07;9.63;;;9.40;99.90;;;;;;5067313;28;20716;-65
2024/04/07 01:04:50;;;;;;;15.03;8.17;;;9.40;99.90;;;;;;5061312;28;20215;-65
2024/04/07 01:07:39;;;;;;;22.23;8.53;;;9.50;99.90;;;;;;5064155;28;20679;-65
2024/04/07 01:10:25;;;;;;;20.20;8.70;;;9.50;99.90;;;;;;5060892;28;20200;-65
2024/04/07 01:13:12;;;;;;;20.93;9.00;;;9.50;99.90;;;;;;5064295;28;20434;-66
2024/04/07 01:15:58;;;;;;;18.20;8.60;;;9.50;99.90;;;;;;5068773;28;20205;-65
2024/04/07 01:18:46;;;;;;;15.70;8.57;;;9.50;42.40;;;;;;5060539;28;20184;-66
2024/04/07 01:21:32;;;;;;;17.10;9.03;;;9.60;43.20;;;;;;5066492;28;20927;-66
2024/04/07 01:24:21;;;;;;;21.67;8.93;;;9.60;25.20;;;;;;5060784;28;20651;-65
2024/04/07 01:27:07;;;;;;;15.67;8.07;;;9.50;4.20;;;;;;5066782;28;20200;-65
2024/04/07 01:29:54;;;;;;;19.43;8.50;;;9.60;99.90;;;;;;5069727;28;20645;-66
2024/04/07 01:32:42;;;;;;;18.53;8.07;;;9.60;99.90;;;;;;5064755;28;20719;-66
2024/04/07 01:35:29;;;;;;;15.13;8.27;;;9.50;99.90;;;;;;5067763;28;20186;-66
2024/04/07 01:38:15;;;;;;;14.77;8.13;;;9.40;99.90;;;;;;5063158;28;20699;-66
2024/04/07 01:41:04;;;;;;;15.27;8.00;;;9.40;99.90;;;;;;5063744;28;20279;-65
2024/04/07 01:43:52;;;;;;;17.00;8.77;;;9.40;99.90;;;;;;5060499;28;20201;-67
2024/04/07 01:46:38;;;;;;;16.83;8.53;;;9.40;99.90;;;;;;5067315;28;20209;-66
2024/04/07 01:49:25;;;;;;;15.63;7.90;;;9.30;99.90;;;;;;5063887;28;20212;-65
2024/04/07 01:52:11;;;;;;;13.00;8.30;;;9.30;99.90;;;;;;5065921;28;20233;-65
2024/04/07 01:54:58;;;;;;;15.57;8.50;;;9.30;99.90;;;;;;5054453;28;20193;-65
2024/04/07 01:57:46;;;;;;;20.73;8.67;;;9.30;99.90;;;;;;5062100;28;20663;-65
2024/04/07 02:00:33;;;;;;;16.90;9.33;;;9.30;99.90;;;;;;5058880;28;20220;-65
2024/04/07 02:03:20;;;;;;;25.03;10.27;;;9.30;1.00;;;;;;5064985;28;20207;-65
2024/04/07 02:06:07;;;;;;;23.53;10.47;;;9.40;1.00;;;;;;5059605;28;20703;-65
2024/04/07 02:08:54;;;;;;;18.63;9.50;;;9.30;1.00;;;;;;5067349;28;20678;-65
2024/04/07 02:11:41;;;;;;;18.70;10.23;;;9.30;1.00;;;;;;5065989;28;22091;-66
2024/04/07 02:14:29;;;;;;;22.60;10.30;;;9.20;1.00;;;;;;5059829;28;20216;-65
2024/04/07 02:17:16;;;;;;;22.23;10.17;;;9.10;1.00;;;;;;5058443;28;20201;-65
2024/04/07 02:20:08;;;;;;;21.27;9.63;;;9.10;1.00;;;;;;5060881;28;20208;-65
2024/04/07 02:22:55;;;;;;;16.37;9.17;;;9.10;65.00;;;;;;5061119;28;20205;-65
2024/04/07 02:25:41;;;;;;;18.50;9.17;;;9.10;99.90;;;;;;5066184;28;20204;-65
2024/04/07 02:28:28;;;;;;;19.43;9.33;;;9.00;99.90;;;;;;5067948;28;20257;-65
2024/04/07 02:31:16;;;;;;;18.37;9.90;;;9.10;99.90;;;;;;5059880;28;20195;-65
2024/04/07 02:34:04;;;;;;;18.43;9.13;;;9.00;99.90;;;;;;5062305;28;20224;-66
2024/04/07 02:36:50;;;;;;;18.70;9.07;;;9.10;99.90;;;;;;5061644;28;20261;-65
2024/04/07 02:39:38;;;;;;;16.30;9.00;;;9.00;99.90;;;;;;5060008;28;20223;-66
2024/04/07 02:42:24;;;;;;;17.67;9.83;;;9.00;99.90;;;;;;5061190;28;20537;-65
2024/04/07 02:48:17;;;;;;;14.67;8.87;;;9.00;99.90;;;;;;5061569;28;20198;-65
2024/04/07 02:51:05;;;;;;;18.83;8.60;;;8.90;1.00;;;;;;5062407;28;20210;-65
2024/04/07 02:53:52;;;;;;;20.83;9.83;;;8.90;1.00;;;;;;5064352;28;20305;-67
2024/04/07 02:56:39;;;;;;;21.43;9.70;;;8.90;1.00;;;;;;5059213;28;20203;-66
2024/04/07 02:59:26;;;;;;;25.17;9.23;;;9.00;1.00;;;;;;5068795;28;20241;-65
2024/04/07 03:02:13;;;;;;;17.40;8.90;;;9.00;1.00;;;;;;5063137;28;20199;-65
2024/04/07 03:05:01;;;;;;;15.63;9.20;;;9.00;1.00;;;;;;5060311;28;20234;-65
2024/04/07 03:07:51;;;;;;;15.40;9.27;;;9.00;1.00;;;;;;5055437;28;20210;-66
2024/04/07 03:10:37;;;;;;;17.03;9.33;;;9.00;1.00;;;;;;5062831;28;20204;-66
2024/04/07 03:13:24;;;;;;;17.33;9.63;;;9.00;3.40;;;;;;5061269;28;20284;-65
2024/04/07 03:16:11;;;;;;;13.83;7.50;;;9.10;26.40;;;;;;5065204;28;20214;-65
2024/04/07 03:18:58;;;;;;;15.90;7.77;;;9.10;24.30;;;;;;5063353;28;20241;-66
2024/04/07 03:21:45;;;;;;;17.23;7.37;;;9.10;24.80;;;;;;5062070;28;20213;-65
2024/04/07 03:24:33;;;;;;;19.83;9.90;;;9.10;36.50;;;;;;5061249;28;20207;-65
2024/04/07 03:27:19;;;;;;;17.73;9.00;;;9.10;33.20;;;;;;5064344;28;20198;-66
2024/04/07 03:30:07;;;;;;;16.93;8.87;;;9.10;34.80;;;;;;5068240;28;20284;-66
2024/04/07 03:32:53;;;;;;;18.27;8.03;;;9.00;40.40;;;;;;5052283;28;20232;-65
2024/04/07 03:35:40;;;;;;;13.50;7.37;;;9.00;47.40;;;;;;5066653;28;20250;-65
2024/04/07 03:38:29;;;;;;;17.87;7.63;;;9.00;76.00;;;;;;5065531;28;20219;-65
2024/04/07 03:41:16;;;;;;;20.80;7.70;;;9.20;91.20;;;;;;5069688;28;20243;-65
2024/04/07 03:44:04;;;;;;;14.30;7.87;;;9.30;92.00;;;;;;5065996;28;20200;-65
2024/04/07 03:46:52;;;;;;;12.70;7.17;;;9.20;88.00;;;;;;5068601;28;20255;-65
2024/04/07 03:49:39;;;;;;;16.53;6.90;;;9.20;73.30;;;;;;5060803;28;20208;-65
2024/04/07 03:52:25;;;;;;;13.60;7.43;;;9.20;70.90;;;;;;5071082;28;20212;-65
2024/04/07 03:55:14;;;;;;;12.43;6.70;;;9.20;55.60;;;;;;5065548;28;20954;-65
2024/04/07 03:58:00;;;;;;;12.60;6.77;;;9.20;63.80;;;;;;5068797;28;20213;-65
2024/04/07 04:00:47;;;;;;;9.80;6.20;;;9.20;70.80;;;;;;5068101;28;20699;-65
2024/04/07 04:03:33;;;;;;;13.87;7.40;;;9.20;85.90;;;;;;5067244;28;20193;-65
2024/04/07 04:06:20;;;;;;;13.87;6.50;;;9.20;87.50;;;;;;5065361;28;20231;-66
2024/04/07 04:09:09;;;;;;;11.23;5.87;;;9.30;98.10;;;;;;5061993;28;20204;-65
2024/04/07 04:11:58;;;;;;;13.70;5.90;;;9.30;99.90;;;;;;5070172;28;20736;-65
2024/04/07 04:14:44;;;;;;;12.63;6.70;;;9.40;99.90;;;;;;5063730;28;20205;-65
2024/04/07 04:17:31;;;;;;;11.97;7.13;;;9.30;96.40;;;;;;5068384;28;20581;-65
2024/04/07 04:20:17;;;;;;;12.20;6.60;;;9.20;95.00;;;;;;5070128;28;20223;-66
2024/04/07 04:23:05;;;;;;;16.50;7.50;;;9.30;99.90;;;;;;5063549;28;20655;-65
2024/04/07 04:25:51;;;;;;;14.90;7.60;;;9.40;99.90;;;;;;5063479;28;20254;-65
2024/04/07 04:28:40;;;;;;;13.97;6.80;;;9.40;99.90;;;;;;5062315;28;20653;-65
2024/04/07 04:31:26;;;;;;;9.20;6.40;;;9.50;99.90;;;;;;5063674;28;20277;-65
2024/04/07 04:34:13;;;;;;;13.90;6.60;;;9.60;99.90;;;;;;5064894;28;20569;-65
2024/04/07 04:37:00;;;;;;;12.67;6.63;;;9.80;99.90;;;;;;5076436;28;20205;-66
2024/04/07 04:39:47;;;;;;;11.40;7.50;;;9.90;99.90;;;;;;5064824;28;20596;-65
2024/04/07 04:42:34;;;;;;;14.13;7.30;;;10.20;99.90;;;;;;5064319;28;20223;-65
2024/04/07 04:45:22;;;;;;;15.77;7.83;;;10.40;99.90;;;;;;5059907;28;20203;-65
2024/04/07 04:48:08;;;;;;;15.53;8.33;;;10.50;99.90;;;;;;5063904;28;20570;-65
2024/04/07 04:50:56;;;;;;;14.87;8.20;;;10.70;99.90;;;;;;5064893;28;20198;-65
2024/04/07 04:53:42;;;;;;;13.47;8.07;;;10.90;80.50;;;;;;5066593;28;20223;-66
2024/04/07 04:56:30;;;;;;;17.00;8.27;;;11.20;25.40;;;;;;5062855;28;20249;-65
2024/04/07 04:59:16;;;;;;;12.90;7.83;;;11.30;1.00;;;;;;5061433;28;20196;-66
2024/04/07 05:02:05;;;;;;;17.33;7.90;;;11.40;99.90;;;;;;5063748;28;20212;-65
2024/04/07 05:04:52;;;;;;;13.30;7.43;;;11.50;1.00;;;;;;5066779;28;20283;-65
2024/04/07 05:07:38;;;;;;;14.87;7.83;;;11.70;99.90;;;;;;5056522;28;20204;-65
2024/04/07 05:10:25;;;;;;;13.43;7.27;;;11.80;1.00;;;;;;5065753;28;20300;-65
2024/04/07 05:13:12;;;;;;;13.40;6.93;;;12.00;1.00;;;;;;5055609;28;20627;-65
2024/04/07 05:15:59;;;;;;;14.23;7.50;;;12.10;99.90;;;;;;5059126;28;20350;-66
2024/04/07 05:18:47;;;;;;;14.63;7.30;;;12.20;1.00;;;;;;5059066;28;20189;-65
2024/04/07 05:21:34;;;;;;;10.67;6.53;;;12.30;99.90;;;;;;5060062;28;20213;-65
2024/04/07 05:24:21;;;;;;;13.27;6.70;;;12.40;1.00;;;;;;5068086;28;20246;-65
2024/04/07 05:27:08;;;;;;;21.43;7.20;;;12.50;1.00;;;;;;5058201;28;20206;-65
2024/04/07 05:29:55;;;;;;;10.93;6.00;;;12.60;99.90;;;;;;5055583;28;20201;-65
2024/04/07 05:32:42;;;;;;;13.60;6.97;;;12.70;1.00;;;;;;5061765;28;20292;-65
2024/04/07 05:35:31;;;;;;;16.37;6.90;;;12.80;99.90;;;;;;5063201;28;20230;-65
2024/04/07 05:38:18;;;;;;;10.90;5.90;;;13.00;99.90;;;;;;5062494;28;20196;-65
2024/04/07 05:41:04;;;;;;;15.50;6.17;;;13.10;1.00;;;;;;5061814;28;20599;-65
2024/04/07 05:43:51;;;;;;;11.83;6.37;;;13.20;1.00;;;;;;5058008;28;20195;-65
2024/04/07 05:46:38;;;;;;;12.40;6.27;;;13.30;1.00;;;;;;5067012;28;20207;-64
2024/04/07 05:49:25;;;;;;;10.37;6.03;;;13.40;99.90;;;;;;5069044;28;20222;-64
2024/04/07 05:52:14;;;;;;;10.10;5.63;;;13.50;99.90;;;;;;5066879;28;20218;-65
2024/04/07 05:55:00;;;;;;;12.90;6.23;;;13.70;42.20;;;;;;5059693;28;20205;-65
2024/04/07 05:57:47;;;;;;;11.57;6.47;;;13.70;1.00;;;;;;5064853;28;20192;-65
2024/04/07 06:00:34;;;;;;;11.70;5.70;;;13.80;1.00;;;;;;5059286;28;20207;-65
2024/04/07 06:03:22;;;;;;;11.83;6.00;;;13.90;99.90;;;;;;5047440;28;21266;-65
2024/04/07 06:06:08;;;;;;;12.23;6.57;;;14.00;99.90;;;;;;5055308;28;20211;-65
2024/04/07 06:08:57;;;;;;;10.97;6.20;;;14.00;99.90;;;;;;5050985;28;20223;-65
2024/04/07 06:11:45;;;;;;;11.57;6.27;;;14.10;99.90;;;;;;5057719;28;20212;-65
2024/04/07 06:14:32;;;;;;;12.50;6.23;;;14.30;1.00;;;;;;5053803;28;20223;-66
2024/04/07 06:17:18;;;;;;;11.40;6.23;;;14.40;1.00;;;;;;5052094;28;20632;-65
2024/04/07 06:20:07;;;;;;;12.53;6.23;;;14.50;1.00;;;;;;5061031;28;20210;-65
2024/04/07 06:22:53;;;;;;;12.93;5.73;;;14.60;1.00;;;;;;5058632;28;20200;-65
2024/04/07 06:25:42;;;;;;;11.63;5.60;;;14.70;1.00;;;;;;5061931;28;20683;-65
2024/04/07 06:28:30;;;;;;;9.57;5.07;;;14.90;99.90;;;;;;5060364;28;20287;-65
2024/04/07 06:31:17;;;;;;;9.37;5.40;;;15.10;99.90;;;;;;5050700;28;20593;-65
2024/04/07 06:34:04;;;;;;;8.63;5.10;;;15.30;99.90;;;;;;5053555;28;20233;-65
2024/04/07 06:36:51;;;;;;;10.43;5.47;;;15.50;1.00;;;;;;5051076;28;20201;-65
2024/04/07 06:39:38;;;;;;;9.57;4.93;;;15.60;1.00;;;;;;5059444;28;20224;-65
2024/04/07 06:42:28;;;;;;;6.87;4.30;;;15.70;1.00;;;;;;5060304;28;20208;-65
2024/04/07 06:45:14;;;;;;;7.20;4.13;;;15.90;1.00;;;;;;5064224;28;20296;-67
2024/04/07 06:48:02;;;;;;;10.17;4.43;;;16.10;1.00;;;;;;5061944;28;20193;-67
2024/04/07 06:50:48;;;;;;;13.03;3.80;;;16.40;99.90;;;;;;5062240;28;20741;-67
2024/04/07 06:53:35;;;;;;;7.87;3.97;;;16.50;1.00;;;;;;5060350;28;20219;-67
2024/04/07 06:56:21;;;;;;;6.80;3.50;;;16.70;1.00;;;;;;5060770;28;20224;-67
2024/04/07 06:59:10;;;;;;;7.23;3.80;;;16.90;1.00;;;;;;5058454;28;20197;-67
2024/04/07 07:01:56;;;;;;;6.70;3.60;;;17.10;99.90;;;;;;5055398;28;20207;-67
2024/04/07 07:04:43;;;;;;;6.50;3.20;;;17.30;99.90;;;;;;5068258;28;20414;-67
2024/04/07 07:07:29;;;;;;;4.67;3.13;;;17.50;99.90;;;;;;5052925;28;20213;-68
2024/04/07 07:10:17;;;;;;;8.70;3.03;;;17.70;99.90;;;;;;5056574;28;20524;-68
2024/04/07 07:13:04;;;;;;;5.97;2.70;;;18.00;1.00;;;;;;5058778;28;20294;-67
2024/04/07 07:15:52;;;;;;;9.07;3.57;;;18.20;1.00;;;;;;5053113;28;20284;-67
2024/04/07 07:18:38;;;;;;;7.77;3.00;;;18.20;1.00;;;;;;5064523;28;20206;-67
2024/04/07 07:21:26;;;;;;;7.10;2.93;;;18.20;1.00;;;;;;5070090;28;20681;-67
2024/04/07 07:24:12;;;;;;;8.70;3.17;;;18.20;1.00;;;;;;5060895;28;20693;-67
2024/04/07 07:26:59;;;;;;;4.00;2.50;;;18.40;99.90;;;;;;5061730;28;20196;-67
2024/04/07 07:29:45;;;;;;;6.07;2.50;;;18.60;1.00;;;;;;5064251;28;20287;-67
2024/04/07 07:32:35;;;;;;;4.73;2.70;;;18.80;99.90;;;;;;5065261;28;20203;-67
2024/04/07 07:35:21;;;;;;;5.83;2.40;;;18.80;99.90;;;;;;5068673;28;20207;-67
2024/04/07 07:38:08;;;;;;;5.27;2.67;;;18.90;99.90;;;;;;5072021;28;20231;-67
2024/04/07 07:40:54;;;;;;;4.27;2.27;;;19.20;99.90;;;;;;5051955;28;20233;-67
2024/04/07 07:43:42;;;;;;;6.67;2.40;;;19.40;99.90;;;;;;5050613;28;20194;-67
2024/04/07 07:46:28;;;;;;;5.10;2.50;;;19.50;1.00;;;;;;5044996;28;20211;-67
2024/04/07 07:49:16;;;;;;;5.97;2.50;;;19.50;1.00;;;;;;5050036;28;20204;-66
2024/04/07 07:52:03;;;;;;;4.73;2.40;;;19.60;20.90;;;;;;5045296;28;20260;-67
2024/04/07 07:54:50;;;;;;;4.63;2.80;;;19.90;99.90;;;;;;5050397;28;20823;-67
2024/04/07 07:57:37;;;;;;;8.60;2.90;;;20.10;99.90;;;;;;5057786;28;20675;-66
2024/04/07 08:00:25;;;;;;;7.53;3.07;;;20.20;1.00;;;;;;5049913;28;20472;-67
2024/04/07 08:03:11;;;;;;;6.37;3.10;;;20.30;1.00;;;;;;5044122;28;20201;-66
2024/04/07 08:06:00;;;;;;;8.40;3.30;;;20.30;1.00;;;;;;5044927;28;20613;-67
2024/04/07 08:08:46;;;;;;;8.57;3.93;;;20.60;99.90;;;;;;5042767;28;20676;-66
2024/04/07 08:11:33;;;;;;;10.07;4.03;;;20.40;1.00;;;;;;5048457;28;20205;-67
2024/04/07 08:14:21;;;;;;;12.60;4.50;;;20.30;99.90;;;;;;5046974;28;20240;-66
2024/04/07 08:17:08;;;;;;;7.30;4.20;;;20.50;1.00;;;;;;5044000;28;20209;-67
2024/04/07 08:19:56;;;;;;;8.70;4.13;;;20.60;99.90;;;;;;5046829;28;20201;-66
2024/04/07 08:22:45;;;;;;;8.73;4.70;;;20.70;1.00;;;;;;5046616;28;20208;-67
2024/04/07 08:25:33;;;;;;;5.40;3.70;;;20.80;99.90;;;;;;5048613;28;20241;-67
2024/04/07 08:28:20;;;;;;;8.40;3.73;;;21.30;1.00;;;;;;5045150;28;20213;-67
2024/04/07 08:31:07;;;;;;;6.80;4.30;;;21.70;1.00;;;;;;5036207;28;20545;-67
2024/04/07 08:33:54;;;;;;;10.43;5.20;;;21.60;1.00;;;;;;5043288;28;20739;-67
2024/04/07 08:36:40;;;;;;;11.93;4.40;;;21.50;1.00;;;;;;5044307;28;20200;-67
2024/04/07 08:39:29;;;;;;;9.13;4.17;;;21.80;72.00;;;;;;5044181;28;20221;-67
2024/04/07 08:42:15;;;;;;;7.47;4.10;;;22.10;1.00;;;;;;5065410;28;20209;-67
2024/04/07 08:45:05;;;;;;;9.70;3.97;;;22.20;1.00;;;;;;5058007;28;20209;-67
2024/04/07 08:47:51;;;;;;;9.23;4.30;;;22.20;1.00;;;;;;5066794;28;20200;-67
2024/04/07 08:50:39;;;;;;;12.63;4.97;;;22.50;1.00;;;;;;5064622;28;20228;-67
2024/04/07 08:53:25;;;;;;;6.63;3.87;;;22.90;1.00;;;;;;5067290;28;20213;-67
2024/04/07 08:56:14;;;;;;;5.67;3.40;;;22.60;1.00;;;;;;5066945;28;20193;-67
2024/04/07 08:59:00;;;;;;;8.23;3.93;;;23.00;1.00;;;;;;5064278;28;20196;-67
2024/04/07 09:01:47;;;;;;;5.83;3.50;;;23.00;1.00;;;;;;5060830;28;20696;-67
2024/04/07 09:04:34;;;;;;;5.90;3.37;;;22.90;99.90;;;;;;5061942;28;20196;-67
2024/04/07 09:07:21;;;;;;;4.63;2.67;;;23.00;99.90;;;;;;5060866;28;20542;-68
2024/04/07 09:10:08;;;;;;;6.03;3.20;;;23.10;99.90;;;;;;5063120;28;20659;-67
2024/04/07 09:12:56;;;;;;;6.13;2.93;;;23.20;99.90;;;;;;5061591;28;20197;-68
2024/04/07 09:15:43;;;;;;;4.75;2.95;;;23.80;99.90;;;;;;5054787;28;20226;-67
2024/04/07 09:18:29;;;;;;;4.85;2.92;;;23.90;99.90;;;;;;5063236;28;20543;-67
2024/04/07 09:21:19;;;;;;;3.85;2.83;;;24.30;99.90;;;;;;5065801;28;20234;-67
2024/04/07 09:24:08;;;;;;;7.63;2.70;;;24.20;99.90;;;;;;5057837;28;20219;-67
2024/04/07 09:26:57;;;;;;;5.82;2.97;;;23.90;99.90;;;;;;5059678;28;20288;-67
2024/04/07 09:29:45;;;;;;;5.78;2.85;;;23.90;99.90;;;;;;5067109;28;20204;-67
2024/04/07 09:32:32;;;;;;;5.55;2.88;;;24.10;99.90;;;;;;5066894;28;20196;-67
2024/04/07 09:35:18;;;;;;;5.47;2.47;;;23.90;99.90;;;;;;5061712;28;20228;-67
2024/04/07 09:38:06;;;;;;;4.65;2.70;;;24.00;99.90;;;;;;5061330;28;20232;-66
2024/04/07 09:40:54;;;;;;;4.30;2.80;;;23.90;99.90;;;;;;5065108;28;20232;-67
2024/04/07 09:43:41;;;;;;;4.90;2.45;;;23.40;99.90;;;;;;5065608;28;20202;-67
2024/04/07 09:46:30;;;;;;;8.23;2.58;;;23.70;99.90;;;;;;5063162;28;20201;-67
2024/04/07 09:49:16;;;;;;;5.28;2.80;;;23.60;99.90;;;;;;5072137;28;20876;-67
2024/04/07 09:52:04;;;;;;;6.80;2.88;;;23.80;99.90;;;;;;5067005;28;20258;-67
2024/04/07 09:54:51;;;;;;;5.97;2.90;;;24.30;99.90;;;;;;5064453;28;20224;-67
2024/04/07 09:57:38;;;;;;;7.65;2.88;;;24.60;99.90;;;;;;5060161;28;21567;-66
2024/04/07 10:00:24;;;;;;;8.30;3.10;;;24.00;99.90;;;;;;5067238;28;20793;-68
2024/04/07 10:03:13;;;;;;;4.93;2.83;;;24.30;99.90;;;;;;5065087;28;20279;-67
2024/04/07 10:05:59;;;;;;;10.88;3.08;;;24.70;99.90;;;;;;5061630;28;20204;-66
2024/04/07 10:08:47;;;;;;;5.50;2.65;;;24.70;99.90;;;;;;5065020;28;20216;-68
2024/04/07 10:11:33;;;;;;;3.97;2.83;;;24.90;99.90;;;;;;5058632;28;20204;-67
2024/04/07 10:14:20;;;;;;;6.47;2.42;;;24.90;99.90;;;;;;5062375;28;20217;-67
2024/04/07 10:17:07;;;;;;;7.15;3.45;;;24.70;99.90;;;;;;5060998;28;20560;-67
2024/04/07 10:19:56;;;;;;;5.18;2.92;;;24.60;99.90;;;;;;5058627;28;20594;-67
2024/04/07 10:22:42;;;;;;;3.95;2.17;;;25.10;99.90;;;;;;5060781;28;20290;-67
2024/04/07 10:25:34;;;;;;;2.50;1.95;;;25.60;99.90;;;;;;5057666;28;20185;-66
2024/04/07 10:28:20;;;;;;;2.83;1.95;;;25.30;99.90;;;;;;5059548;28;20196;-67
2024/04/07 10:31:08;;;;;;;3.92;1.50;;;25.50;99.90;;;;;;5065413;28;20231;-67
2024/04/07 10:33:55;;;;;;;3.63;1.90;;;25.40;99.90;;;;;;5052921;28;20259;-67
2024/04/07 10:36:52;;;;;;;2.65;1.70;;;25.40;99.90;;;;;;5062421;28;20587;-67
2024/04/07 10:39:38;;;;;;;1.85;1.38;;;25.70;99.90;;;;;;5062703;28;20220;-67
2024/04/07 10:42:25;;;;;;;2.35;1.55;;;26.00;99.90;;;;;;5057426;28;20293;-66
2024/04/07 10:45:12;;;;;;;4.10;1.60;;;26.40;99.90;;;;;;5065599;28;20200;-67
2024/04/07 10:47:59;;;;;;;2.78;1.60;;;26.50;99.90;;;;;;5064575;28;20189;-67
2024/04/07 10:50:46;;;;;;;3.75;1.77;;;26.20;99.90;;;;;;5064499;28;20602;-67
2024/04/07 10:53:34;;;;;;;2.72;1.58;;;26.40;99.90;;;;;;5065367;28;20208;-67
2024/04/07 10:56:21;;;;;;;3.25;1.40;;;26.70;99.90;;;;;;5066904;28;20192;-67
2024/04/07 10:59:07;;;;;;;3.83;1.90;;;26.80;99.90;;;;;;5064149;28;20208;-67
2024/04/07 11:01:54;;;;;;;3.03;1.55;;;26.70;99.90;;;;;;5066953;28;20279;-66
2024/04/07 11:04:41;;;;;;;5.70;2.00;;;26.70;99.90;;;;;;5070534;28;20204;-67
2024/04/07 11:07:28;;;;;;;2.42;1.48;;;26.30;99.90;;;;;;5068094;28;20291;-67
2024/04/07 11:10:17;;;;;;;3.30;1.40;;;26.30;99.90;;;;;;5062493;28;20255;-67
2024/04/07 11:13:04;;;;;;;3.55;1.40;;;26.70;99.90;;;;;;5072368;28;20199;-68
2024/04/07 11:15:50;;;;;;;4.47;1.50;;;26.70;99.90;;;;;;5062839;28;20289;-67
2024/04/07 11:18:38;;;;;;;3.58;1.50;;;27.10;99.90;;;;;;5064640;28;20655;-67
2024/04/07 11:21:26;;;;;;;3.15;1.83;;;27.30;99.90;;;;;;5059715;28;20205;-67
2024/04/07 11:24:13;;;;;;;5.40;2.10;;;27.60;99.90;;;;;;5071605;28;20207;-67
2024/04/07 11:27:02;;;;;;;2.33;1.63;;;26.70;99.90;;;;;;5054200;28;20204;-67
2024/04/07 11:29:49;;;;;;;3.00;1.80;;;26.40;99.90;;;;;;5061815;28;20204;-68
2024/04/07 11:32:37;;;;;;;2.53;1.95;;;26.90;99.90;;;;;;5066618;28;20254;-68
2024/04/07 11:35:25;;;;;;;3.47;1.80;;;27.30;99.90;;;;;;5065700;28;20291;-67
2024/04/07 11:38:13;;;;;;;5.82;1.92;;;26.80;99.90;;;;;;5060135;28;20221;-67
2024/04/07 11:40:59;;;;;;;4.28;2.25;;;26.50;99.90;;;;;;5051850;28;20735;-67
2024/04/07 11:43:49;;;;;;;2.83;2.10;;;26.50;99.90;;;;;;5055650;28;20220;-67
2024/04/07 11:46:37;;;;;;;5.18;2.20;;;27.60;99.90;;;;;;5059101;28;20213;-67
2024/04/07 11:49:25;;;;;;;2.95;2.03;;;28.20;99.90;;;;;;5059812;28;20204;-67
2024/04/07 11:52:11;;;;;;;2.75;1.95;;;27.50;99.90;;;;;;5060354;28;20197;-67
2024/04/07 11:54:58;;;;;;;5.35;2.20;;;27.30;99.90;;;;;;5062246;28;20221;-67
2024/04/07 11:57:45;;;;;;;3.55;2.33;;;27.30;99.90;;;;;;5061839;28;20568;-67
2024/04/07 12:00:33;;;;;;;3.45;2.25;;;27.50;99.90;;;;;;5059137;28;20225;-67
2024/04/07 12:03:20;;;;;;;4.55;2.15;;;27.50;99.90;;;;;;5067296;28;20236;-67
2024/04/07 12:06:06;;;;;;;4.35;2.30;;;27.80;99.90;;;;;;5065749;28;20201;-67
2024/04/07 12:08:54;;;;;;;4.47;2.00;;;27.70;99.90;;;;;;5064997;28;20242;-67
2024/04/07 12:11:41;;;;;;;3.45;1.95;;;27.60;99.90;;;;;;5060512;28;20205;-67
2024/04/07 12:14:28;;;;;;;4.65;1.95;;;27.20;99.90;;;;;;5067716;28;20223;-67
2024/04/07 12:17:17;;;;;;;4.43;2.00;;;27.10;99.90;;;;;;5063495;28;20193;-67
2024/04/07 12:20:04;;;;;;;3.85;2.08;;;26.90;99.90;;;;;;5063502;28;20208;-67
2024/04/07 12:22:51;;;;;;;5.40;1.77;;;27.10;99.90;;;;;;5065187;28;20228;-67
2024/04/07 12:25:37;;;;;;;3.78;1.80;;;27.00;99.90;;;;;;5066691;28;20199;-67
2024/04/07 12:28:24;;;;;;;4.97;1.58;;;27.00;99.90;;;;;;5068519;28;20296;-67
2024/04/07 12:31:11;;;;;;;3.83;2.00;;;27.10;99.90;;;;;;5061786;28;20213;-67
2024/04/07 12:33:59;;;;;;;2.75;1.70;;;27.40;99.90;;;;;;5055553;28;20230;-67
2024/04/07 12:36:46;;;;;;;3.03;1.58;;;28.00;99.90;;;;;;5065168;28;20668;-67
2024/04/07 12:39:33;;;;;;;2.38;1.60;;;27.80;99.90;;;;;;5059801;28;20216;-67
2024/04/07 12:42:19;;;;;;;3.15;1.95;;;28.40;99.90;;;;;;5067835;28;20200;-67
2024/04/07 12:45:07;;;;;;;2.88;1.70;;;28.20;99.90;;;;;;5065289;28;20196;-67
2024/04/07 12:47:54;;;;;;;2.00;1.70;;;28.70;99.90;;;;;;5059902;28;20656;-67
2024/04/07 12:50:42;;;;;;;1.83;1.40;;;28.20;99.90;;;;;;5063202;28;20686;-67
2024/04/07 12:53:29;;;;;;;3.25;1.60;;;27.40;99.90;;;;;;5065583;28;20322;-67
2024/04/07 12:56:15;;;;;;;5.35;1.60;;;28.80;99.90;;;;;;5067828;28;20212;-67
2024/04/07 12:59:02;;;;;;;2.83;1.52;;;29.40;99.90;;;;;;5069927;28;20212;-66
2024/04/07 13:01:48;;;;;;;1.70;1.05;;;28.50;99.90;;;;;;5053162;28;20201;-66
2024/04/07 13:04:36;;;;;;;3.08;1.17;;;28.30;99.90;;;;;;5058800;28;20216;-67
2024/04/07 13:07:24;;;;;;;5.50;1.25;;;28.20;99.90;;;;;;5066741;28;20208;-67
2024/04/07 13:10:10;;;;;;;1.80;1.10;;;29.00;99.90;;;;;;5067293;28;20554;-67
2024/04/07 13:12:58;;;;;;;2.80;1.20;;;29.60;99.90;;;;;;5062316;28;20205;-67
2024/04/07 13:15:46;;;;;;;3.17;1.38;;;30.30;99.90;;;;;;5056504;28;20299;-67
2024/04/07 13:18:33;;;;;;;1.80;1.20;;;31.10;99.90;;;;;;5062917;28;20769;-67
2024/04/07 13:21:19;;;;;;;1.85;1.20;;;31.50;99.90;;;;;;5056617;28;20566;-66
2024/04/07 13:24:08;;;;;;;3.28;1.35;;;30.00;99.90;;;;;;5066475;28;20193;-67
2024/04/07 13:26:54;;;;;;;3.58;1.35;;;28.90;99.90;;;;;;5060585;28;20678;-67
2024/04/07 13:29:41;;;;;;;3.67;1.30;;;29.80;99.90;;;;;;5054873;28;20707;-67
2024/04/07 13:32:27;;;;;;;1.70;1.08;;;29.20;99.90;;;;;;5057174;28;20201;-66
2024/04/07 13:35:15;;;;;;;8.52;1.38;;;29.10;99.90;;;;;;5067859;28;20217;-66
2024/04/07 13:38:01;;;;;;;3.40;1.40;;;28.90;99.90;;;;;;5068412;28;20208;-67
2024/04/07 13:40:56;;;;;;;4.07;1.58;;;29.40;99.90;;;;;;5066616;28;20750;-66
2024/04/07 13:43:42;;;;;;;3.35;1.42;;;29.10;99.90;;;;;;5066368;28;20266;-66
2024/04/07 13:46:29;;;;;;;3.85;1.13;;;29.30;99.90;;;;;;5054765;28;20220;-66
2024/04/07 13:49:16;;;;;;;6.07;1.20;;;29.50;99.90;;;;;;5058090;28;20245;-67
2024/04/07 13:52:04;;;;;;;1.90;1.17;;;30.10;99.90;;;;;;5049990;28;20295;-66
2024/04/07 13:54:51;;;;;;;2.88;1.25;;;29.60;99.90;;;;;;5067136;28;20704;-66
2024/04/07 13:57:40;;;;;;;2.42;1.40;;;29.20;99.90;;;;;;5055979;28;20303;-66
2024/04/07 14:00:27;;;;;;;4.43;1.27;;;29.70;99.90;;;;;;5057340;28;20204;-66
2024/04/07 14:03:14;;;;;;;3.40;1.00;;;29.50;99.90;;;;;;5059972;28;20200;-67
2024/04/07 14:06:01;;;;;;;2.88;1.27;;;29.60;99.90;;;;;;5069295;28;20207;-67
2024/04/07 14:08:49;;;;;;;1.98;1.08;;;30.70;99.90;;;;;;5059788;28;20199;-67
2024/04/07 14:11:35;;;;;;;2.38;1.10;;;31.20;99.90;;;;;;5065922;28;20193;-66
2024/04/07 14:14:24;;;;;;;2.22;1.20;;;31.30;99.90;;;;;;5061819;28;20242;-67
2024/04/07 14:17:10;;;;;;;8.02;1.40;;;30.90;99.90;;;;;;5062817;28;20214;-66
2024/04/07 14:19:58;;;;;;;3.80;1.00;;;31.00;99.90;;;;;;5062890;28;20206;-66
2024/04/07 14:22:44;;;;;;;1.52;1.17;;;31.50;99.90;;;;;;5069174;28;20205;-66
2024/04/07 14:25:31;;;;;;;6.97;3.60;;;31.00;99.90;;;;;;5078612;28;20195;-67
2024/04/07 14:28:17;;;;;;;3.35;2.35;;;31.30;99.90;;;;;;5065211;28;20230;-67
2024/04/07 14:31:06;;;;;;;87.53;51.30;;;30.00;99.90;;;;;;5060478;28;20293;-67
2024/04/07 14:33:52;;;;;;;2.75;1.40;;;29.50;99.90;;;;;;5057770;28;20192;-67